Time;durP1;ratioP1;P1;durP2;ratioP2;P2;SDS_P1;SDS_P2;PMS_P1;PMS_P2;Temp;Humidity;BMP_temperature;BMP_pressure;BME280_temperature;BME280_humidity;BME280_pressure;Samples;Min_cycle;Max_cycle;Signal;HPM_P1;HPM_P2
2023/09/04 00:02:03;;;;;;;9.80;6.63;;;487.00;2380.80;;;;;;5029447;28;20025;-60
2023/09/04 00:04:29;;;;;;;10.27;5.93;;;487.00;2380.80;;;;;;5029588;28;20025;-60
2023/09/04 00:06:54;;;;;;;7.45;6.25;;;487.00;2380.80;;;;;;5029280;28;20482;-61
2023/09/04 00:09:20;;;;;;;8.10;6.75;;;486.90;2380.80;;;;;;5029243;28;20048;-60
2023/09/04 00:11:46;;;;;;;8.73;6.70;;;486.90;2380.80;;;;;;5029161;28;20093;-60
2023/09/04 00:14:12;;;;;;;7.90;6.90;;;486.90;2380.80;;;;;;5029254;28;20033;-60
2023/09/04 00:16:38;;;;;;;7.93;6.43;;;486.80;2380.80;;;;;;5029285;28;20033;-60
2023/09/04 00:19:03;;;;;;;9.07;6.57;;;486.70;2380.80;;;;;;5028956;28;20459;-60
2023/09/04 00:21:29;;;;;;;9.50;7.07;;;486.70;2380.80;;;;;;5029105;28;20029;-60
2023/09/04 00:23:55;;;;;;;9.50;6.90;;;486.70;2380.80;;;;;;5028633;28;20021;-60
2023/09/04 00:26:20;;;;;;;8.13;6.65;;;486.60;2380.80;;;;;;5029574;28;20499;-59
2023/09/04 00:28:47;;;;;;;13.30;6.72;;;486.50;2380.80;;;;;;5029031;28;20399;-61
2023/09/04 00:31:13;;;;;;;7.70;6.20;;;486.50;2380.80;;;;;;5029126;28;20044;-60
2023/09/04 00:33:38;;;;;;;10.82;6.90;;;486.50;2380.80;;;;;;5028666;28;20017;-61
2023/09/04 00:36:04;;;;;;;8.88;6.50;;;486.50;2380.80;;;;;;5028812;28;20041;-61
2023/09/04 00:38:30;;;;;;;9.00;7.22;;;486.60;2380.80;;;;;;5015448;28;20025;-61
2023/09/04 00:40:55;;;;;;;8.52;6.97;;;486.50;2380.80;;;;;;5029030;28;20029;-60
2023/09/04 00:43:21;;;;;;;7.22;6.45;;;486.60;2380.80;;;;;;5027988;28;20484;-59
2023/09/04 00:45:47;;;;;;;7.45;6.68;;;486.50;2380.80;;;;;;5028330;28;20045;-60
2023/09/04 00:48:13;;;;;;;9.60;6.60;;;486.60;2380.80;;;;;;5028700;28;20379;-60
2023/09/04 00:50:41;;;;;;;10.50;6.78;;;486.60;2380.80;;;;;;5028907;28;20029;-60
2023/09/04 00:53:09;;;;;;;11.90;7.43;;;486.50;2380.80;;;;;;5028359;28;20014;-60
2023/09/04 00:55:37;;;;;;;10.77;7.57;;;486.60;2380.80;;;;;;5028515;28;20028;-61
2023/09/04 00:58:03;;;;;;;8.27;7.20;;;486.50;2380.80;;;;;;5028710;28;20076;-60
2023/09/04 01:00:29;;;;;;;12.60;8.18;;;486.40;2380.80;;;;;;5028994;28;20064;-60
2023/09/04 01:02:59;;;;;;;12.10;8.27;;;486.40;2380.80;;;;;;5028676;28;20030;-61
2023/09/04 01:05:28;;;;;;;10.68;8.80;;;486.40;2380.80;;;;;;5028591;28;20056;-60
2023/09/04 01:07:54;;;;;;;9.63;8.02;;;461.70;2380.80;;;;;;5028336;28;20028;-61
2023/09/04 01:10:20;;;;;;;9.45;8.45;;;486.40;2380.80;;;;;;5028635;28;20038;-60
2023/09/04 01:13:04;;;;;;;8.73;7.78;;;461.70;2380.80;;;;;;5028093;28;20029;-60
2023/09/04 01:15:31;;;;;;;9.30;8.40;;;461.70;2380.80;;;;;;5028576;28;20033;-60
2023/09/04 01:17:58;;;;;;;10.65;9.05;;;461.70;2380.80;;;;;;5028381;28;20487;-61
2023/09/04 01:20:28;;;;;;;18.25;9.65;;;461.70;2380.80;;;;;;5028566;28;20040;-60
2023/09/04 01:22:55;;;;;;;11.50;9.20;;;461.70;2380.80;;;;;;5028521;28;20013;-61
2023/09/04 01:25:22;;;;;;;11.07;8.27;;;461.70;2380.80;;;;;;5028506;28;20025;-60
2023/09/04 01:27:57;;;;;;;12.90;8.38;;;461.70;2380.80;;;;;;5028089;28;20020;-60
2023/09/04 01:30:56;;;;;;;16.85;9.65;;;461.60;2380.80;;;;;;5028700;28;20037;-61
2023/09/04 01:33:27;;;;;;;11.75;9.43;;;461.60;2380.80;;;;;;5046021;28;20037;-60
2023/09/04 01:35:54;;;;;;;12.60;10.00;;;461.70;2380.80;;;;;;5045923;28;20431;-59
2023/09/04 01:38:20;;;;;;;18.60;9.05;;;461.50;2380.80;;;;;;5046127;28;20029;-60
2023/09/04 01:40:50;;;;;;;11.43;10.32;;;461.50;2380.80;;;;;;5045954;28;20029;-60
2023/09/04 01:43:16;;;;;;;12.35;9.18;;;461.50;2380.80;;;;;;5045503;28;20048;-60
2023/09/04 01:45:42;;;;;;;12.43;9.85;;;461.40;2380.80;;;;;;5045830;28;20061;-61
2023/09/04 01:48:08;;;;;;;13.02;11.05;;;461.40;2380.80;;;;;;5045990;28;20055;-61
2023/09/04 01:50:33;;;;;;;14.05;10.15;;;461.40;2380.80;;;;;;5045404;28;20049;-60
2023/09/04 01:52:59;;;;;;;11.07;8.68;;;461.30;2380.80;;;;;;5045704;28;20025;-60
2023/09/04 01:55:25;;;;;;;12.63;9.75;;;461.30;2380.80;;;;;;5048629;28;20028;-61
2023/09/04 01:57:50;;;;;;;13.15;9.75;;;461.30;2380.80;;;;;;5049456;28;20060;-60
2023/09/04 02:00:16;;;;;;;10.75;9.65;;;461.40;2380.80;;;;;;5048900;28;20021;-60
2023/09/04 02:02:42;;;;;;;11.60;9.40;;;461.40;2380.80;;;;;;5049498;28;20129;-60
2023/09/04 02:05:08;;;;;;;10.27;9.18;;;461.40;2380.80;;;;;;5049296;28;20525;-59
2023/09/04 02:07:34;;;;;;;12.40;9.55;;;461.40;2380.80;;;;;;5049373;28;20025;-61
2023/09/04 02:09:59;;;;;;;10.90;9.85;;;461.40;2380.80;;;;;;5030853;28;20045;-60
2023/09/04 02:12:25;;;;;;;17.55;9.82;;;461.40;2380.80;;;;;;5031183;28;20029;-61
2023/09/04 02:14:52;;;;;;;10.95;9.63;;;461.40;2380.80;;;;;;5031419;28;20121;-60
2023/09/04 02:17:17;;;;;;;9.38;8.45;;;461.30;2380.80;;;;;;5031187;28;20041;-61
2023/09/04 02:19:43;;;;;;;12.52;9.38;;;461.30;2380.80;;;;;;5031608;28;20482;-60
2023/09/04 02:22:09;;;;;;;10.23;9.07;;;461.30;2380.80;;;;;;5031399;28;20052;-60
2023/09/04 02:24:35;;;;;;;11.93;8.80;;;461.30;2380.80;;;;;;5031171;28;20025;-61
2023/09/04 02:27:00;;;;;;;12.57;9.70;;;461.20;2380.80;;;;;;5031527;28;20513;-60
2023/09/04 02:29:27;;;;;;;12.00;9.65;;;461.20;2380.80;;;;;;5030639;28;20502;-61
2023/09/04 02:31:53;;;;;;;11.65;9.80;;;461.10;2380.80;;;;;;5031147;28;20460;-60
2023/09/04 02:34:19;;;;;;;12.93;10.40;;;461.10;2380.80;;;;;;5031407;28;20063;-60
2023/09/04 02:36:45;;;;;;;11.23;9.27;;;461.20;2380.80;;;;;;5031030;28;20029;-61
2023/09/04 02:39:11;;;;;;;13.07;10.48;;;461.10;2380.80;;;;;;5027064;28;20029;-61
2023/09/04 02:41:36;;;;;;;11.88;9.68;;;461.00;2380.80;;;;;;5022181;28;20048;-61
2023/09/04 02:44:02;;;;;;;11.77;10.27;;;461.00;2380.80;;;;;;5030966;28;20029;-60
2023/09/04 02:46:32;;;;;;;10.85;9.82;;;461.00;2380.80;;;;;;5030704;28;20049;-61
2023/09/04 02:48:58;;;;;;;10.52;9.40;;;460.90;2380.80;;;;;;5030490;28;20029;-61
2023/09/04 02:51:23;;;;;;;14.25;10.45;;;460.90;2380.80;;;;;;5031071;28;20772;-60
2023/09/04 02:53:49;;;;;;;14.15;9.40;;;460.90;2380.80;;;;;;5030734;28;20030;-60
2023/09/04 02:56:15;;;;;;;11.55;9.50;;;460.80;2380.80;;;;;;5030619;28;20033;-61
2023/09/04 02:58:41;;;;;;;13.43;10.10;;;460.90;2380.80;;;;;;5030255;28;20032;-62
2023/09/04 03:01:07;;;;;;;10.23;8.98;;;460.80;2380.80;;;;;;5030907;28;20379;-60
2023/09/04 03:03:33;;;;;;;9.68;8.52;;;460.80;2380.80;;;;;;5030335;28;20356;-60
2023/09/04 03:06:07;;;;;;;10.30;8.73;;;436.10;2355.20;;;;;;5030074;28;20033;-60
2023/09/04 03:08:33;;;;;;;9.80;7.45;;;436.10;2355.20;;;;;;5030571;28;20018;-60
2023/09/04 03:10:58;;;;;;;10.90;8.02;;;436.00;2355.20;;;;;;5030318;28;20041;-60
2023/09/04 03:13:24;;;;;;;12.55;8.30;;;436.00;2355.20;;;;;;5029689;28;20025;-60
2023/09/04 03:15:50;;;;;;;9.77;7.85;;;436.00;2355.20;;;;;;5030273;28;20040;-60
2023/09/04 03:18:15;;;;;;;8.20;7.35;;;435.90;2355.20;;;;;;5030509;28;20045;-60
2023/09/04 03:20:41;;;;;;;10.60;7.80;;;435.90;2355.20;;;;;;5030602;28;20542;-61
2023/09/04 03:23:08;;;;;;;8.38;7.45;;;435.90;2355.20;;;;;;5030142;28;20029;-60
2023/09/04 03:25:35;;;;;;;8.23;7.38;;;435.90;2355.20;;;;;;5030500;28;20414;-60
2023/09/04 03:28:01;;;;;;;8.38;6.72;;;435.90;2355.20;;;;;;5030108;28;20037;-61
2023/09/04 03:30:27;;;;;;;14.52;7.25;;;435.80;2355.20;;;;;;5029947;28;20475;-60
2023/09/04 03:32:53;;;;;;;8.98;6.78;;;435.80;2355.20;;;;;;5030235;28;20037;-60
2023/09/04 03:35:18;;;;;;;10.15;6.47;;;435.80;2355.20;;;;;;5030083;28;20033;-60
2023/09/04 03:37:44;;;;;;;7.88;5.43;;;435.70;2355.20;;;;;;5030107;28;20024;-61
2023/09/04 03:40:20;;;;;;;10.45;7.05;;;435.70;2355.20;;;;;;5030298;28;20032;-60
2023/09/04 03:42:46;;;;;;;8.13;6.32;;;435.60;2355.20;;;;;;5017462;28;20049;-60
2023/09/04 03:45:12;;;;;;;9.80;6.97;;;435.60;2355.20;;;;;;5029537;28;20057;-60
2023/09/04 03:47:38;;;;;;;10.88;5.97;;;435.60;2355.20;;;;;;5029848;28;20071;-60
2023/09/04 03:50:04;;;;;;;8.25;6.10;;;435.60;2355.20;;;;;;5029684;28;20033;-61
2023/09/04 03:52:30;;;;;;;8.80;6.13;;;435.60;2355.20;;;;;;5030119;28;20096;-60
2023/09/04 03:54:56;;;;;;;9.30;6.60;;;435.60;2355.20;;;;;;5029317;28;20125;-60
2023/09/04 03:57:22;;;;;;;6.35;5.20;;;435.50;2355.20;;;;;;5029670;28;20022;-61
2023/09/04 03:59:52;;;;;;;8.93;5.85;;;435.60;2355.20;;;;;;5029369;28;20030;-60
2023/09/04 04:02:21;;;;;;;7.55;6.03;;;435.50;2355.20;;;;;;5029334;28;20065;-59
2023/09/04 04:04:50;;;;;;;11.38;6.55;;;435.50;2355.20;;;;;;5027271;28;20352;-60
2023/09/04 04:07:16;;;;;;;9.48;6.25;;;435.50;2355.20;;;;;;5019242;28;20387;-60
2023/09/04 04:09:43;;;;;;;8.32;6.30;;;435.50;2355.20;;;;;;5029068;28;20037;-60
2023/09/04 04:12:09;;;;;;;9.55;7.07;;;435.50;2355.20;;;;;;5029280;28;20080;-60
2023/09/04 04:14:35;;;;;;;7.72;6.45;;;435.50;2355.20;;;;;;5029477;28;20053;-60
2023/09/04 04:17:01;;;;;;;11.23;6.47;;;435.60;2355.20;;;;;;5028363;28;20028;-60
2023/09/04 04:19:27;;;;;;;11.10;6.82;;;435.60;2355.20;;;;;;5028930;28;20063;-60
2023/09/04 04:21:53;;;;;;;8.85;6.78;;;435.60;2355.20;;;;;;5029386;28;20029;-60
2023/09/04 04:24:20;;;;;;;9.77;6.50;;;435.60;2355.20;;;;;;5029012;28;20021;-60
2023/09/04 04:26:46;;;;;;;7.80;5.88;;;435.60;2355.20;;;;;;5028968;28;20148;-61
2023/09/04 04:29:12;;;;;;;7.47;6.25;;;435.60;2355.20;;;;;;5028896;28;20124;-61
2023/09/04 04:31:38;;;;;;;10.63;5.65;;;435.60;2355.20;;;;;;5029138;28;20025;-60
2023/09/04 04:34:04;;;;;;;7.05;6.25;;;435.60;2355.20;;;;;;5029048;28;20462;-62
2023/09/04 04:36:30;;;;;;;7.63;6.63;;;435.60;2355.20;;;;;;5029027;28;20037;-60
2023/09/04 04:38:56;;;;;;;7.18;6.28;;;435.70;2355.20;;;;;;5028610;28;20041;-60
2023/09/04 04:41:21;;;;;;;8.63;6.47;;;435.70;2355.20;;;;;;5029033;28;20476;-61
2023/09/04 04:43:47;;;;;;;7.18;6.28;;;435.80;2355.20;;;;;;5028459;28;20037;-60
2023/09/04 04:46:15;;;;;;;8.02;6.68;;;435.90;2355.20;;;;;;5028811;28;20495;-61
2023/09/04 04:48:41;;;;;;;6.07;5.13;;;435.90;2355.20;;;;;;5028703;28;20021;-59
2023/09/04 04:51:07;;;;;;;7.47;5.90;;;436.00;2355.20;;;;;;5028770;28;20431;-61
2023/09/04 04:53:34;;;;;;;9.50;5.90;;;436.00;2355.20;;;;;;5028568;28;20021;-60
2023/09/04 04:56:00;;;;;;;8.45;6.13;;;436.00;2355.20;;;;;;5029137;28;20033;-60
2023/09/04 04:58:26;;;;;;;6.45;5.22;;;436.10;2355.20;;;;;;5028547;28;20021;-60
2023/09/04 05:00:52;;;;;;;9.00;6.53;;;460.80;2380.80;;;;;;5028664;28;20347;-60
2023/09/04 05:03:17;;;;;;;8.68;5.20;;;460.90;2380.80;;;;;;5028029;28;20107;-60
2023/09/04 05:05:45;;;;;;;7.47;6.50;;;461.00;2380.80;;;;;;5028872;28;20121;-60
2023/09/04 05:08:10;;;;;;;9.18;6.22;;;461.50;2380.80;;;;;;5028186;28;20025;-60
2023/09/04 05:10:36;;;;;;;10.00;6.25;;;486.50;2380.80;;;;;;5028549;28;20033;-60
2023/09/04 05:13:02;;;;;;;7.25;6.35;;;486.80;2380.80;;;;;;5025361;28;20480;-61
2023/09/04 05:15:28;;;;;;;11.02;6.18;;;487.10;2380.80;;;;;;5018896;28;20038;-60
2023/09/04 05:17:53;;;;;;;6.78;5.97;;;487.30;2380.80;;;;;;5028446;28;20352;-60
2023/09/04 05:20:19;;;;;;;46.47;10.80;;;512.20;2380.80;;;;;;5018751;28;20407;-60
2023/09/04 05:22:45;;;;;;;5.75;5.18;;;512.50;2380.80;;;;;;5025279;28;20025;-61
2023/09/04 05:25:11;;;;;;;6.38;4.85;;;512.80;2380.80;;;;;;5028805;28;20548;-60
2023/09/04 05:27:37;;;;;;;7.43;5.30;;;512.70;2380.80;;;;;;5028267;28;20518;-61
2023/09/04 05:30:03;;;;;;;7.78;5.85;;;537.60;2406.40;;;;;;5032068;28;20042;-61
2023/09/04 05:32:29;;;;;;;6.13;5.10;;;563.30;2432.00;;;;;;5032359;28;20021;-60
2023/09/04 05:34:55;;;;;;;8.57;5.65;;;;;;;;;;5032178;28;20032;-61
2023/09/04 05:37:21;;;;;;;6.50;5.75;;;589.40;2432.00;;;;;;5032116;28;20151;-60
2023/09/04 05:39:47;;;;;;;14.13;6.32;;;589.70;2432.00;;;;;;5032190;28;20026;-60
2023/09/04 05:42:13;;;;;;;10.27;6.03;;;615.30;2432.00;;;;;;5031758;28;20036;-60
2023/09/04 05:44:38;;;;;;;10.55;6.25;;;640.00;2432.00;;;;;;5031517;28;20403;-61
2023/09/04 05:47:04;;;;;;;8.10;5.82;;;640.40;2432.00;;;;;;5031982;28;20021;-61
2023/09/04 05:49:30;;;;;;;9.68;5.75;;;640.80;2406.40;;;;;;5032018;28;20538;-61
2023/09/04 05:51:55;;;;;;;6.55;5.45;;;640.10;2432.00;;;;;;5031390;28;20044;-60
2023/09/04 05:54:23;;;;;;;7.75;5.43;;;615.10;2432.00;;;;;;5031676;28;20477;-61
2023/09/04 05:56:49;;;;;;;8.57;5.68;;;640.20;2380.80;;;;;;5031254;28;20100;-61
2023/09/04 05:59:15;;;;;;;6.25;5.40;;;691.80;2201.60;;;;;;5031584;28;20100;-61
2023/09/04 06:01:40;;;;;;;6.22;5.45;;;717.00;2099.20;;;;;;5032024;28;20432;-61
2023/09/04 06:04:06;;;;;;;7.55;5.30;;;742.50;2022.40;;;;;;5031885;28;20503;-60
2023/09/04 06:06:32;;;;;;;7.47;5.38;;;691.80;2048.00;;;;;;5031823;28;20368;-60
2023/09/04 06:08:58;;;;;;;6.90;5.75;;;742.70;1996.80;;;;;;5031190;28;20098;-60
2023/09/04 06:11:24;;;;;;;8.82;6.05;;;793.70;1843.20;;;;;;5031424;28;20021;-60
2023/09/04 06:13:49;;;;;;;5.53;5.03;;;819.80;1715.20;;;;;;5031535;28;20021;-61
2023/09/04 06:16:19;;;;;;;6.60;4.65;;;819.30;1740.80;;;;;;5030452;28;20034;-61
2023/09/04 06:18:44;;;;;;;7.50;5.32;;;794.20;1740.80;;;;;;5031446;28;20105;-61
2023/09/04 06:21:10;;;;;;;8.95;5.40;;;717.70;1868.80;;;;;;5031197;28;20483;-60
2023/09/04 06:23:36;;;;;;;6.15;4.70;;;742.90;1843.20;;;;;;5030868;28;20155;-60
2023/09/04 06:26:02;;;;;;;7.80;4.95;;;768.30;1792.00;;;;;;5031546;28;20029;-61
2023/09/04 06:28:28;;;;;;;5.28;4.78;;;716.90;1920.00;;;;;;5030907;28;20101;-61
2023/09/04 06:30:55;;;;;;;8.93;5.28;;;666.00;2022.40;;;;;;5030696;28;20171;-60
2023/09/04 06:33:29;;;;;;;9.18;5.93;;;640.10;2124.80;;;;;;5030619;28;20026;-59
2023/09/04 06:35:54;;;;;;;6.47;5.13;;;666.20;2073.60;;;;;;5031273;28;20119;-60
2023/09/04 06:38:20;;;;;;;7.97;6.35;;;717.40;1894.40;;;;;;5030767;28;20085;-61
2023/09/04 06:40:45;;;;;;;8.30;6.75;;;743.00;1817.60;;;;;;5028872;28;20037;-61
2023/09/04 06:43:11;;;;;;;7.70;6.05;;;819.60;1689.60;;;;;;5030352;28;20052;-61
2023/09/04 06:45:37;;;;;;;9.65;6.78;;;845.50;1561.60;;;;;;5022142;28;20060;-63
2023/09/04 06:48:05;;;;;;;7.85;7.05;;;870.50;1510.40;;;;;;5010797;28;20413;-61
2023/09/04 06:50:30;;;;;;;7.20;6.53;;;870.70;1459.20;;;;;;5010851;28;20037;-62
2023/09/04 06:52:56;;;;;;;7.20;6.57;;;870.70;1484.80;;;;;;5012514;28;20476;-61
2023/09/04 06:55:21;;;;;;;6.70;6.13;;;896.00;1433.60;;;;;;5029794;28;20060;-60
2023/09/04 06:57:47;;;;;;;9.75;7.32;;;870.90;1433.60;;;;;;5029628;28;20025;-62
2023/09/04 07:00:13;;;;;;;7.32;6.50;;;896.00;1408.00;;;;;;5029827;28;20057;-60
2023/09/04 07:02:39;;;;;;;6.68;5.85;;;896.50;1382.40;;;;;;5030498;28;20087;-62
2023/09/04 07:05:08;;;;;;;6.15;5.55;;;896.60;1356.80;;;;;;5030043;28;20029;-61
2023/09/04 07:07:35;;;;;;;9.50;6.53;;;870.40;1433.60;;;;;;5030351;28;20100;-61
2023/09/04 07:10:03;;;;;;;7.75;6.95;;;871.20;1382.40;;;;;;5030052;28;20036;-61
2023/09/04 07:12:31;;;;;;;7.10;5.10;;;845.20;1484.80;;;;;;5029984;28;20036;-61
2023/09/04 07:14:56;;;;;;;6.38;5.57;;;819.20;1510.40;;;;;;5030061;28;20112;-60
2023/09/04 07:17:22;;;;;;;6.85;5.63;;;742.60;1638.40;;;;;;5029199;28;20052;-61
2023/09/04 07:19:48;;;;;;;8.65;6.25;;;691.70;1740.80;;;;;;5030188;28;20021;-60
2023/09/04 07:22:13;;;;;;;10.15;5.82;;;666.30;1792.00;;;;;;5030150;28;20024;-61
2023/09/04 07:24:39;;;;;;;7.65;5.60;;;640.70;1817.60;;;;;;5030022;28;20467;-61
2023/09/04 07:27:05;;;;;;;5.93;5.13;;;640.10;1894.40;;;;;;5029561;28;20022;-62
2023/09/04 07:29:30;;;;;;;6.40;5.35;;;615.20;1920.00;;;;;;5029753;28;20037;-59
2023/09/04 07:31:57;;;;;;;7.78;6.05;;;614.80;1971.20;;;;;;5029278;28;20030;-62
2023/09/04 07:34:23;;;;;;;8.75;4.95;;;640.90;1894.40;;;;;;5030093;28;20754;-61
2023/09/04 07:36:49;;;;;;;9.48;5.85;;;666.50;1817.60;;;;;;5029408;28;20109;-61
2023/09/04 07:39:14;;;;;;;7.20;5.13;;;640.60;1920.00;;;;;;5029238;28;20057;-61
2023/09/04 07:41:40;;;;;;;8.35;4.88;;;615.20;1971.20;;;;;;5015978;28;20435;-61
2023/09/04 07:44:06;;;;;;;5.05;4.35;;;614.90;1945.60;;;;;;5028885;28;20052;-63
2023/09/04 07:46:31;;;;;;;6.13;5.53;;;614.40;1971.20;;;;;;5028535;28;20029;-61
2023/09/04 07:48:57;;;;;;;7.43;5.18;;;589.20;2048.00;;;;;;5029062;28;20022;-61
2023/09/04 07:51:23;;;;;;;6.43;5.18;;;564.00;2124.80;;;;;;5028214;28;20044;-61
2023/09/04 07:53:49;;;;;;;7.30;6.13;;;564.00;2124.80;;;;;;5029194;28;20084;-62
2023/09/04 07:56:16;;;;;;;4.85;4.13;;;564.10;2124.80;;;;;;5028984;28;20033;-61
2023/09/04 07:58:43;;;;;;;10.40;5.40;;;589.20;2073.60;;;;;;5029013;28;20029;-62
2023/09/04 08:01:13;;;;;;;8.13;5.35;;;589.40;2048.00;;;;;;5028595;28;20033;-61
2023/09/04 08:03:40;;;;;;;6.93;5.22;;;589.40;2048.00;;;;;;5029343;28;20026;-62
2023/09/04 08:06:06;;;;;;;6.18;4.90;;;589.20;2073.60;;;;;;5029080;28;20061;-62
2023/09/04 08:08:32;;;;;;;10.23;5.20;;;589.30;2099.20;;;;;;5029424;28;20029;-63
2023/09/04 08:10:58;;;;;;;6.68;5.05;;;615.20;1971.20;;;;;;5029037;28;20125;-60
2023/09/04 08:13:23;;;;;;;6.63;6.00;;;614.40;2048.00;;;;;;5009541;28;20018;-62
2023/09/04 08:15:49;;;;;;;5.97;4.88;;;666.50;1894.40;;;;;;5021356;28;20389;-63
2023/09/04 08:18:15;;;;;;;7.30;5.63;;;717.30;1740.80;;;;;;5010013;28;20053;-63
2023/09/04 08:20:41;;;;;;;6.97;5.20;;;717.30;1740.80;;;;;;5021679;28;20100;-62
2023/09/04 08:23:07;;;;;;;6.63;4.53;;;717.60;1715.20;;;;;;5015948;28;20132;-62
2023/09/04 08:25:33;;;;;;;8.52;4.93;;;691.90;1766.40;;;;;;5028912;28;20527;-62
2023/09/04 08:27:59;;;;;;;10.27;5.00;;;666.40;1843.20;;;;;;5025996;28;20109;-62
2023/09/04 08:30:25;;;;;;;6.78;5.38;;;640.70;1894.40;;;;;;5028294;28;20439;-61
2023/09/04 08:32:51;;;;;;;6.10;5.40;;;640.00;1894.40;;;;;;5028457;28;20044;-60
2023/09/04 08:35:19;;;;;;;7.18;6.03;;;640.00;1945.60;;;;;;5028536;28;20029;-62
2023/09/04 08:37:46;;;;;;;6.50;5.47;;;640.70;1894.40;;;;;;5028535;28;20072;-62
2023/09/04 08:40:12;;;;;;;7.05;6.32;;;640.70;1868.80;;;;;;5028738;28;20025;-62
2023/09/04 08:42:39;;;;;;;5.63;4.75;;;666.50;1817.60;;;;;;5028293;28;20067;-61
2023/09/04 08:45:07;;;;;;;5.72;5.05;;;666.30;1843.20;;;;;;5028233;28;20455;-62
2023/09/04 08:47:40;;;;;;;7.25;5.32;;;666.20;1817.60;;;;;;5029125;28;20071;-62
2023/09/04 08:50:06;;;;;;;;;;;640.90;1868.80;;;;;;5010220;28;20333;-63
2023/09/04 08:52:34;;;;;;;8.25;5.72;;;640.40;1894.40;;;;;;5020352;28;19932;-61
2023/09/04 08:55:00;;;;;;;8.32;6.05;;;615.20;1945.60;;;;;;5028828;28;20034;-61
2023/09/04 08:57:26;;;;;;;6.22;5.00;;;614.90;1971.20;;;;;;5028651;28;20057;-61
2023/09/04 08:59:52;;;;;;;5.95;5.35;;;615.00;1945.60;;;;;;5028586;28;20475;-61
2023/09/04 09:02:19;;;;;;;9.50;5.55;;;614.80;1971.20;;;;;;5028394;28;20091;-62
2023/09/04 09:04:46;;;;;;;9.23;5.28;;;615.00;1971.20;;;;;;5028305;28;20383;-62
2023/09/04 09:07:14;;;;;;;7.47;5.93;;;614.50;2022.40;;;;;;5028983;28;20036;-62
2023/09/04 09:09:46;;;;;;;6.68;5.18;;;614.50;2022.40;;;;;;5028921;28;20033;-62
2023/09/04 09:12:12;;;;;;;5.60;4.75;;;589.70;2048.00;;;;;;5010481;28;20120;-62
2023/09/04 09:14:38;;;;;;;8.82;5.72;;;589.30;2048.00;;;;;;5008945;28;20124;-61
2023/09/04 09:17:08;;;;;;;6.45;4.07;;;589.00;2073.60;;;;;;5011558;28;21242;-62
2023/09/04 09:19:38;;;;;;;12.65;5.38;;;588.90;2073.60;;;;;;5028602;28;20096;-61
2023/09/04 09:22:14;;;;;;;8.98;5.38;;;588.80;2099.20;;;;;;5028304;28;20467;-62
2023/09/04 09:24:56;;;;;;;7.82;5.22;;;564.10;2099.20;;;;;;5028814;28;20033;-62
2023/09/04 09:27:26;;;;;;;9.75;5.15;;;563.90;2124.80;;;;;;5016295;28;20030;-62
2023/09/04 09:29:54;;;;;;;5.68;5.07;;;588.80;2099.20;;;;;;5028499;28;20553;-62
2023/09/04 09:32:20;;;;;;;7.38;5.38;;;588.90;2073.60;;;;;;5028672;28;20041;-61
2023/09/04 09:34:54;;;;;;;7.10;5.05;;;589.10;2073.60;;;;;;5027937;28;20030;-61
2023/09/04 09:37:21;;;;;;;6.10;5.05;;;589.30;2073.60;;;;;;5028751;28;20529;-61
2023/09/04 09:39:47;;;;;;;7.53;5.13;;;588.80;2099.20;;;;;;5015605;28;20037;-62
2023/09/04 09:42:13;;;;;;;5.75;5.18;;;563.70;2150.40;;;;;;5010009;28;20121;-61
2023/09/04 09:44:39;;;;;;;6.70;5.40;;;563.60;2150.40;;;;;;5015155;28;20113;-61
2023/09/04 09:47:10;;;;;;;22.77;6.10;;;563.70;2150.40;;;;;;5026543;28;20033;-61
2023/09/04 09:49:37;;;;;;;7.18;4.95;;;564.00;2124.80;;;;;;5020783;28;20038;-62
2023/09/04 09:52:12;;;;;;;6.20;4.80;;;588.80;2099.20;;;;;;5022276;28;20017;-61
2023/09/04 09:54:38;;;;;;;7.63;4.78;;;564.10;2099.20;;;;;;5028533;28;20471;-61
2023/09/04 09:57:08;;;;;;;8.00;4.75;;;564.10;2124.80;;;;;;5027991;28;20021;-61
2023/09/04 09:59:36;;;;;;;4.88;3.88;;;564.00;2124.80;;;;;;5028421;28;20916;-61
2023/09/04 10:02:05;;;;;;;8.52;5.00;;;588.90;2073.60;;;;;;5028023;28;20037;-61
2023/09/04 10:04:32;;;;;;;10.05;4.82;;;589.30;2073.60;;;;;;5028413;28;20045;-61
2023/09/04 10:07:03;;;;;;;4.70;4.05;;;589.40;2048.00;;;;;;5027903;28;20113;-62
2023/09/04 10:09:37;;;;;;;6.13;4.93;;;589.50;2048.00;;;;;;5027870;28;20103;-61
2023/09/04 10:12:11;;;;;;;6.70;3.90;;;614.70;1996.80;;;;;;5028264;28;20441;-61
2023/09/04 10:14:42;;;;;;;13.57;5.30;;;614.80;1996.80;;;;;;5028068;28;20076;-62
2023/09/04 10:17:16;;;;;;;8.73;4.93;;;589.60;2022.40;;;;;;5031686;28;20084;-62
2023/09/04 10:19:43;;;;;;;5.55;4.60;;;589.10;2073.60;;;;;;5031637;28;20048;-62
2023/09/04 10:22:24;;;;;;;6.72;5.28;;;564.10;2099.20;;;;;;5031579;28;20547;-61
2023/09/04 10:25:02;;;;;;;6.32;4.82;;;564.00;2150.40;;;;;;5031731;28;20018;-61
2023/09/04 10:27:32;;;;;;;6.80;4.90;;;588.80;2099.20;;;;;;5030873;28;20033;-61
2023/09/04 10:30:05;;;;;;;7.38;5.40;;;589.10;2099.20;;;;;;5031096;28;20041;-63
2023/09/04 10:32:31;;;;;;;6.35;4.50;;;589.10;2073.60;;;;;;5015861;28;20495;-61
2023/09/04 10:34:57;;;;;;;10.32;5.50;;;589.10;2073.60;;;;;;5031043;28;20030;-61
2023/09/04 10:37:26;;;;;;;7.78;4.90;;;589.20;2073.60;;;;;;5031276;28;20029;-61
2023/09/04 10:39:53;;;;;;;6.07;4.82;;;588.80;2099.20;;;;;;5031150;28;20025;-62
2023/09/04 10:42:20;;;;;;;7.93;5.50;;;563.90;2124.80;;;;;;5017589;28;20029;-61
2023/09/04 10:44:53;;;;;;;8.07;5.28;;;563.70;2150.40;;;;;;5030745;28;20053;-61
2023/09/04 10:47:19;;;;;;;;;;;563.70;2176.00;;;;;;5031215;28;20421;-61
2023/09/04 10:49:46;;;;;;;6.05;4.65;;;563.50;2176.00;;;;;;5018425;28;20418;-61
2023/09/04 10:52:12;;;;;;;7.70;5.28;;;563.50;2176.00;;;;;;5011222;28;20030;-61
2023/09/04 10:54:39;;;;;;;7.57;4.78;;;563.30;2176.00;;;;;;5023570;28;20025;-62
2023/09/04 10:57:07;;;;;;;6.32;5.20;;;563.50;2150.40;;;;;;5015508;28;20411;-60
2023/09/04 11:00:09;;;;;;;6.55;4.68;;;563.50;2150.40;;;;;;5010982;28;20537;-61
2023/09/04 11:02:35;;;;;;;6.25;5.00;;;563.50;2176.00;;;;;;5008406;28;20499;-62
2023/09/04 11:05:02;;;;;;;6.53;5.22;;;563.50;2176.00;;;;;;5008710;28;20040;-60
2023/09/04 11:07:34;;;;;;;6.57;4.97;;;563.30;2201.60;;;;;;5008605;28;20133;-60
2023/09/04 11:10:13;;;;;;;6.97;5.47;;;563.20;2201.60;;;;;;5008303;28;20041;-62
2023/09/04 11:12:42;;;;;;;6.05;5.45;;;563.50;2176.00;;;;;;5008587;28;20034;-61
2023/09/04 11:15:12;;;;;;;7.07;5.28;;;563.90;2150.40;;;;;;5008376;28;20109;-61
2023/09/04 11:17:40;;;;;;;6.57;5.10;;;564.10;2124.80;;;;;;5008262;28;20140;-61
2023/09/04 11:20:06;;;;;;;5.82;5.07;;;588.80;2124.80;;;;;;5008094;28;20033;-61
2023/09/04 11:22:33;;;;;;;6.35;5.18;;;589.10;2099.20;;;;;;5008382;28;20057;-62
2023/09/04 11:24:59;;;;;;;6.20;5.15;;;589.50;2073.60;;;;;;5007923;28;20026;-61
2023/09/04 11:27:26;;;;;;;9.20;5.85;;;589.50;2073.60;;;;;;5006737;28;20117;-62
2023/09/04 11:29:52;;;;;;;7.07;5.07;;;589.40;2073.60;;;;;;5008144;28;20472;-61
2023/09/04 11:32:19;;;;;;;8.07;5.55;;;589.60;2073.60;;;;;;5007892;28;20026;-61
2023/09/04 11:34:50;;;;;;;6.50;5.72;;;589.70;2048.00;;;;;;5008401;28;20180;-62
2023/09/04 11:37:16;;;;;;;9.75;5.70;;;614.50;2048.00;;;;;;5022573;28;20117;-62
2023/09/04 11:39:58;;;;;;;10.38;5.72;;;614.40;2048.00;;;;;;5010510;28;20095;-61
2023/09/04 11:42:27;;;;;;;7.53;5.33;;;589.60;2048.00;;;;;;5029925;28;20025;-61
2023/09/04 11:44:53;;;;;;;8.18;5.82;;;589.70;2048.00;;;;;;5029742;28;20291;-61
2023/09/04 11:47:20;;;;;;;6.47;5.25;;;614.70;2022.40;;;;;;5030083;28;20418;-62
2023/09/04 11:49:46;;;;;;;6.60;5.22;;;614.80;1996.80;;;;;;5029551;28;20454;-61
2023/09/04 11:52:13;;;;;;;8.65;5.53;;;614.70;1996.80;;;;;;5029962;28;20025;-61
2023/09/04 11:54:42;;;;;;;7.43;5.88;;;614.70;2022.40;;;;;;5029934;28;20033;-60
2023/09/04 11:57:12;;;;;;;5.93;5.22;;;614.80;1996.80;;;;;;5029841;28;20026;-62
2023/09/04 11:59:39;;;;;;;6.80;5.70;;;614.80;1996.80;;;;;;5029948;28;20039;-61
2023/09/04 12:02:07;;;;;;;10.60;5.22;;;615.10;1971.20;;;;;;5029393;28;20017;-61
2023/09/04 12:04:33;;;;;;;6.75;5.43;;;615.20;1971.20;;;;;;5029319;28;20029;-60
2023/09/04 12:07:03;;;;;;;14.10;6.05;;;640.00;1945.60;;;;;;5029504;28;20030;-60
2023/09/04 12:09:29;;;;;;;8.98;5.90;;;615.20;1996.80;;;;;;5013149;28;20176;-61
2023/09/04 12:11:55;;;;;;;8.32;5.47;;;614.90;1996.80;;;;;;5009742;28;20026;-60
2023/09/04 12:14:21;;;;;;;5.72;5.13;;;614.80;2048.00;;;;;;5010001;28;20034;-61
2023/09/04 12:16:48;;;;;;;6.00;5.03;;;614.60;2073.60;;;;;;5009425;28;20024;-61